»·PEaware :: N2442P KPGA-KSGU

N2442P :: KPGA-KSGU

FLIGHT INFORMATION

Flight Status: Arrived
Operator: Privately registered:
United States
More flights under this callsign
Pilot: Ken Q. (14290)
Aircraft: MOONEY M-20K/M ENCORE BRAVO
(M20T)
More flights by this aircraft type
Origin: KPGA Page Mun
United States
Destination: KSGU St George Mun
United States
More flights between these airports :: More routes between these airports
Route: KPGA UTI KSGU
File this flight plan on PilotEdge
Remarks:
Altitude:
(Current/Filed)
12,500ft
Speed:
(Current/Filed)
170kts
Departed: 12-Nov-18 02:51 PM
Arrived: 12-Nov-18 03:41 PM
Distance/Time
Traveled:
0nm/0:50
Distance/Time
To Go:
Arrived

Flight Plot

Page will automatically refresh every two minutes.

Flight plan parsing failed; only flown route is shown


Map Options




Map Legend


Flown Route
Filed Route
Departure Airport
Arrival Airport
Navaid (VOR, NDB)
Fix

Horizontal Profiles

Position Reports

Time Latitude Longitude Heading Altitude Ground
Speed
12-Nov-18 14:24 36.923000 -111.448819 349 4316ft 0kts
12-Nov-18 14:25 36.923000 -111.448819 349 4316ft 0kts
12-Nov-18 14:26 36.923000 -111.448819 349 4316ft 0kts
12-Nov-18 14:27 36.923000 -111.448819 349 4316ft 0kts
12-Nov-18 14:28 36.923000 -111.448819 349 4316ft 0kts
12-Nov-18 14:29 36.923000 -111.448819 349 4316ft 0kts
12-Nov-18 14:30 36.923000 -111.448819 349 4316ft 0kts
12-Nov-18 14:31 36.923000 -111.448819 349 4316ft 0kts
12-Nov-18 14:32 36.923000 -111.448819 349 4316ft 0kts
12-Nov-18 14:33 36.923000 -111.448819 349 4316ft 0kts
12-Nov-18 14:34 36.923000 -111.448819 349 4316ft 0kts
12-Nov-18 14:35 36.923000 -111.448819 349 4316ft 0kts
12-Nov-18 14:36 36.923000 -111.448819 349 4316ft 0kts
12-Nov-18 14:37 36.923000 -111.448819 349 4316ft 0kts
12-Nov-18 14:38 36.923000 -111.448819 349 4316ft 0kts
12-Nov-18 14:39 36.923000 -111.448819 349 4316ft 0kts
12-Nov-18 14:40 36.923000 -111.448819 349 4316ft 0kts
12-Nov-18 14:41 36.923001 -111.448820 349 4316ft 0kts
12-Nov-18 14:42 36.923002 -111.448820 349 4316ft 0kts
12-Nov-18 14:43 36.923002 -111.448820 349 4316ft 0kts
12-Nov-18 14:44 36.923002 -111.448820 349 4316ft 0kts
12-Nov-18 14:45 36.923002 -111.448820 349 4316ft 0kts
12-Nov-18 14:46 36.923002 -111.448820 349 4316ft 0kts
12-Nov-18 14:47 36.923003 -111.448820 349 4316ft 0kts
12-Nov-18 14:48 36.922836 -111.448710 176 4316ft 12kts
12-Nov-18 14:49 36.918888 -111.447557 169 4316ft 9kts
12-Nov-18 14:50 36.917254 -111.447482 42 4316ft 0kts
12-Nov-18 14:51 36.917262 -111.447474 42 4316ft 0kts
12-Nov-18 14:52 36.916769 -111.446739 83 4316ft 5kts
12-Nov-18 14:53 36.917227 -111.446166 350 4316ft 22kts
12-Nov-18 14:54 36.939324 -111.451997 348 4759ft 114kts
12-Nov-18 14:55 36.950167 -111.489677 259 5506ft 146kts
12-Nov-18 14:56 36.941016 -111.542359 261 6194ft 161kts
12-Nov-18 14:57 36.932935 -111.598060 281 6873ft 161kts
12-Nov-18 14:58 36.941533 -111.653764 285 7467ft 165kts
12-Nov-18 14:59 36.950887 -111.710786 286 7972ft 171kts
12-Nov-18 15:00 36.960223 -111.768922 285 8478ft 171kts
12-Nov-18 15:01 36.969663 -111.827186 286 8979ft 171kts
12-Nov-18 15:02 36.978661 -111.885830 286 9475ft 173kts
12-Nov-18 15:03 36.986768 -111.945180 286 9982ft 173kts
12-Nov-18 15:04 36.993969 -112.004988 286 10464ft 174kts
12-Nov-18 15:05 37.001118 -112.067933 286 10501ft 189kts
12-Nov-18 15:06 36.999456 -112.135756 271 10498ft 199kts
12-Nov-18 15:07 36.993802 -112.204714 271 10495ft 199kts
12-Nov-18 15:08 36.988137 -112.273945 271 10495ft 199kts
12-Nov-18 15:09 36.985102 -112.342602 279 10499ft 196kts
12-Nov-18 15:10 36.986670 -112.410584 279 10560ft 192kts
12-Nov-18 15:11 36.987248 -112.474912 279 11054ft 180kts
12-Nov-18 15:12 36.986372 -112.537190 279 11546ft 178kts
12-Nov-18 15:13 36.986985 -112.598469 285 12035ft 175kts
12-Nov-18 15:14 36.990940 -112.659339 288 12441ft 176kts
12-Nov-18 15:15 36.995569 -112.722663 288 12506ft 188kts
12-Nov-18 15:16 37.000864 -112.788598 288 12507ft 191kts
12-Nov-18 15:17 37.006113 -112.855154 288 12510ft 192kts
12-Nov-18 15:18 37.011373 -112.921830 288 12507ft 192kts
12-Nov-18 15:19 37.016606 -112.988408 288 12511ft 192kts
12-Nov-18 15:20 37.020686 -113.053658 283 12145ft 185kts
12-Nov-18 15:21 37.019150 -113.109440 281 11587ft 146kts
12-Nov-18 15:22 37.017701 -113.158419 282 11066ft 137kts
12-Nov-18 15:23 37.018331 -113.205493 285 10567ft 133kts
12-Nov-18 15:24 37.020973 -113.251596 285 10058ft 132kts
12-Nov-18 15:25 37.024820 -113.297358 285 9559ft 131kts
12-Nov-18 15:26 37.029554 -113.340881 285 9040ft 119kts
12-Nov-18 15:27 37.024493 -113.381618 206 8571ft 143kts
12-Nov-18 15:28 37.008364 -113.358832 21 8099ft 124kts
12-Nov-18 15:29 37.013117 -113.390339 188 7659ft 146kts
12-Nov-18 15:30 37.006548 -113.361373 12 7220ft 123kts
12-Nov-18 15:31 37.015345 -113.392581 209 6769ft 151kts
12-Nov-18 15:32 36.986757 -113.370435 101 6312ft 137kts
12-Nov-18 15:33 37.004708 -113.342176 6 5830ft 128kts
12-Nov-18 15:34 37.018937 -113.376566 283 5338ft 119kts
12-Nov-18 15:35 37.027887 -113.414204 288 4829ft 106kts
12-Nov-18 15:36 37.034844 -113.448345 274 4297ft 98kts
12-Nov-18 15:37 37.041224 -113.484288 284 3925ft 117kts
12-Nov-18 15:38 37.044420 -113.523794 257 3903ft 110kts
12-Nov-18 15:39 37.019664 -113.535063 203 3901ft 97kts
12-Nov-18 15:40 36.997711 -113.552367 229 3846ft 99kts
12-Nov-18 15:41 36.981742 -113.536669 65 3795ft 106kts
12-Nov-18 15:42 37.006494 -113.526999 22 3536ft 95kts
12-Nov-18 15:43 37.029208 -113.514084 17 2864ft 70kts
12-Nov-18 15:44 37.036569 -113.510286 21 2843ft 23kts
12-Nov-18 15:45 37.039916 -113.506503 114 2843ft 21kts
12-Nov-18 15:46 37.038757 -113.505607 113 2843ft 0kts
12-Nov-18 15:47 37.038757 -113.505607 113 2843ft 0kts
12-Nov-18 15:48 37.038757 -113.505607 113 2843ft 0kts
12-Nov-18 15:49 37.038757 -113.505607 113 2843ft 0kts
12-Nov-18 15:50 36.923000 -111.448819 349 4316ft 0kts

Navigation Log

Ident Type
Flight plan parsing failed, navigation log unavailable